Time;durP1;ratioP1;P1;durP2;ratioP2;P2;SDS_P1;SDS_P2;PMS_P1;PMS_P2;Temp;Humidity;BMP_temperature;BMP_pressure;BME280_temperature;BME280_humidity;BME280_pressure;Samples;Min_cycle;Max_cycle;Signal;HPM_P1;HPM_P2
2023/10/08 00:02:26;;;;;;;2.03;1.37;;;12.50;99.90;;;;;;5056678;28;20447;-60
2023/10/08 00:04:54;;;;;;;3.53;1.70;;;12.40;99.90;;;;;;5056766;28;20472;-61
2023/10/08 00:07:21;;;;;;;4.03;2.10;;;12.60;99.90;;;;;;5057114;28;20455;-61
2023/10/08 00:09:51;;;;;;;1.83;1.27;;;12.50;99.90;;;;;;5057208;28;20508;-60
2023/10/08 00:12:19;;;;;;;6.73;1.90;;;12.60;99.90;;;;;;5056507;28;20547;-60
2023/10/08 00:14:49;;;;;;;4.43;2.00;;;12.50;99.90;;;;;;5056953;28;20440;-59
2023/10/08 00:17:17;;;;;;;2.23;1.83;;;12.60;99.90;;;;;;5056702;28;20452;-61
2023/10/08 00:19:52;;;;;;;2.87;1.70;;;12.90;99.90;;;;;;5056665;28;20514;-57
2023/10/08 00:22:19;;;;;;;5.70;1.97;;;12.50;99.90;;;;;;5056611;28;20429;-61
2023/10/08 00:24:49;;;;;;;2.57;1.97;;;12.50;99.90;;;;;;5056255;28;20473;-61
2023/10/08 00:27:17;;;;;;;2.27;1.50;;;12.50;99.90;;;;;;5056577;28;20443;-61
2023/10/08 00:29:47;;;;;;;6.40;2.03;;;12.40;99.90;;;;;;5056531;28;20444;-58
2023/10/08 00:32:15;;;;;;;2.73;1.60;;;12.90;99.90;;;;;;5056051;28;20496;-59
2023/10/08 00:34:43;;;;;;;4.10;1.93;;;12.50;99.90;;;;;;5056281;28;20441;-60
2023/10/08 00:37:13;;;;;;;4.03;1.83;;;12.40;99.90;;;;;;5055905;28;20487;-60
2023/10/08 00:39:45;;;;;;;4.40;1.40;;;12.40;99.90;;;;;;5056093;28;20472;-60
2023/10/08 00:42:12;;;;;;;4.97;1.90;;;12.40;99.90;;;;;;5056305;28;20459;-62
2023/10/08 00:44:47;;;;;;;2.07;1.57;;;12.40;99.90;;;;;;5055733;28;20487;-61
2023/10/08 00:47:18;;;;;;;4.37;1.70;;;12.40;99.90;;;;;;5056283;28;20460;-59
2023/10/08 00:50:06;;;;;;;1.40;1.23;;;12.40;99.90;;;;;;5056465;28;20425;-63
2023/10/08 00:52:48;;;;;;;2.80;1.70;;;12.60;99.90;;;;;;5056299;28;20472;-61
2023/10/08 00:55:21;;;;;;;2.43;1.87;;;12.40;99.90;;;;;;5056466;28;20424;-60
2023/10/08 00:57:53;;;;;;;3.27;1.93;;;12.40;99.90;;;;;;5055762;28;20432;-61
2023/10/08 01:00:22;;;;;;;2.83;2.10;;;12.40;99.90;;;;;;5056053;28;20480;-59
2023/10/08 01:02:59;;;;;;;12.97;2.47;;;12.40;99.90;;;;;;5055721;28;20452;-60
2023/10/08 01:05:46;;;;;;;3.20;1.60;;;12.40;99.90;;;;;;5052019;28;20476;-61
2023/10/08 01:08:19;;;;;;;3.80;1.80;;;12.40;99.90;;;;;;5041670;28;20467;-62
2023/10/08 01:10:47;;;;;;;4.23;2.30;;;12.40;99.90;;;;;;5041016;28;20517;-60
2023/10/08 01:13:19;;;;;;;4.17;2.30;;;12.40;99.90;;;;;;5040885;28;20444;-60
2023/10/08 01:15:50;;;;;;;6.80;1.90;;;;;;;;;;5039750;28;20484;-61
2023/10/08 01:18:30;;;;;;;5.60;1.83;;;12.40;99.90;;;;;;5038863;28;20487;-62
2023/10/08 01:21:04;;;;;;;5.03;2.10;;;12.30;99.90;;;;;;5039009;28;20478;-62
2023/10/08 01:23:32;;;;;;;2.90;1.80;;;12.30;99.90;;;;;;5039114;28;20453;-61
2023/10/08 01:26:10;;;;;;;2.43;1.70;;;12.30;99.90;;;;;;5038478;28;20502;-61
2023/10/08 01:28:39;;;;;;;2.90;1.90;;;12.30;99.90;;;;;;5039202;28;20432;-61
2023/10/08 01:31:07;;;;;;;3.77;1.83;;;12.40;99.90;;;;;;5038608;28;20451;-61
2023/10/08 01:33:37;;;;;;;3.10;1.63;;;12.40;99.90;;;;;;5039041;28;20531;-60
2023/10/08 01:36:07;;;;;;;9.20;1.90;;;12.60;99.90;;;;;;5038322;28;20447;-61
2023/10/08 01:38:36;;;;;;;2.30;1.43;;;12.40;99.90;;;;;;5038567;28;20499;-60
2023/10/08 01:41:10;;;;;;;2.77;1.80;;;12.50;99.90;;;;;;5038636;28;20429;-61
2023/10/08 01:43:38;;;;;;;3.97;2.27;;;12.40;99.90;;;;;;5038639;28;20487;-59
2023/10/08 01:46:11;;;;;;;4.03;1.80;;;12.40;99.90;;;;;;5038161;28;20472;-59
2023/10/08 01:48:39;;;;;;;2.80;1.67;;;12.40;99.90;;;;;;5038605;28;20868;-61
2023/10/08 01:51:11;;;;;;;3.20;1.57;;;12.40;99.90;;;;;;5039316;28;20444;-61
2023/10/08 01:53:40;;;;;;;3.80;1.50;;;12.40;99.90;;;;;;5038436;28;20835;-61
2023/10/08 01:56:07;;;;;;;3.47;2.03;;;13.10;99.90;;;;;;5038656;28;20444;-59
2023/10/08 01:58:34;;;;;;;5.37;1.30;;;12.40;99.90;;;;;;5038580;28;20518;-61
2023/10/08 02:01:05;;;;;;;4.70;2.47;;;12.30;99.90;;;;;;5038391;28;20456;-61
2023/10/08 02:03:32;;;;;;;4.10;1.80;;;12.30;99.90;;;;;;5038598;28;20444;-61
2023/10/08 02:06:05;;;;;;;2.90;1.53;;;12.20;99.90;;;;;;5038789;28;20499;-62
2023/10/08 02:08:32;;;;;;;7.50;1.80;;;12.30;99.90;;;;;;5038431;28;20424;-61
2023/10/08 02:11:02;;;;;;;3.73;2.20;;;12.30;99.90;;;;;;5038374;28;20536;-61
2023/10/08 02:13:30;;;;;;;5.83;1.90;;;12.30;99.90;;;;;;5038164;28;20451;-59
2023/10/08 02:15:58;;;;;;;6.60;2.00;;;12.30;99.90;;;;;;5037195;28;20483;-60
2023/10/08 02:18:25;;;;;;;3.70;2.13;;;12.30;99.90;;;;;;5038432;28;20476;-61
2023/10/08 02:20:52;;;;;;;4.50;2.13;;;12.20;99.90;;;;;;5038395;28;20870;-59
2023/10/08 02:23:19;;;;;;;8.80;3.10;;;12.30;99.90;;;;;;5038257;28;20440;-60
2023/10/08 02:25:47;;;;;;;4.00;2.20;;;10.40;99.90;;;;;;5038044;28;20526;-61
2023/10/08 02:28:17;;;;;;;3.07;2.40;;;12.30;99.90;;;;;;5038231;28;20484;-60
2023/10/08 02:30:44;;;;;;;6.73;2.23;;;12.20;99.90;;;;;;5037889;28;20467;-60
2023/10/08 02:33:15;;;;;;;8.40;3.00;;;12.20;99.90;;;;;;5038172;28;20866;-61
2023/10/08 02:35:45;;;;;;;8.30;4.00;;;12.30;99.90;;;;;;5038576;28;20795;-61
2023/10/08 02:38:16;;;;;;;2.70;2.07;;;12.20;99.90;;;;;;5039122;28;20547;-62
2023/10/08 02:40:46;;;;;;;8.43;2.87;;;12.20;99.90;;;;;;5037707;28;20428;-61
2023/10/08 02:43:15;;;;;;;11.90;2.10;;;12.20;99.90;;;;;;5037799;28;20784;-61
2023/10/08 02:45:49;;;;;;;11.90;4.90;;;12.10;99.90;;;;;;5037748;28;20476;-60
2023/10/08 02:48:16;;;;;;;11.63;2.73;;;12.20;99.90;;;;;;5037942;28;20520;-61
2023/10/08 02:50:45;;;;;;;4.80;2.70;;;12.00;99.90;;;;;;5037281;28;20444;-61
2023/10/08 02:53:12;;;;;;;9.90;3.00;;;12.50;99.90;;;;;;5037187;28;20503;-61
2023/10/08 02:55:43;;;;;;;6.83;2.40;;;12.10;99.90;;;;;;5037601;28;20924;-61
2023/10/08 02:58:15;;;;;;;5.00;3.67;;;12.20;99.90;;;;;;5037530;28;20521;-61
2023/10/08 03:00:44;;;;;;;3.00;2.20;;;12.20;99.90;;;;;;5037899;28;20463;-61
2023/10/08 03:03:15;;;;;;;4.40;2.53;;;12.30;99.90;;;;;;5038640;28;20944;-61
2023/10/08 03:05:45;;;;;;;5.27;2.47;;;12.20;99.90;;;;;;5042972;28;20508;-61
2023/10/08 03:08:13;;;;;;;6.07;2.93;;;12.40;99.90;;;;;;5039937;28;20443;-61
2023/10/08 03:10:41;;;;;;;7.40;3.63;;;11.40;99.90;;;;;;5037484;28;20448;-61
2023/10/08 03:13:10;;;;;;;6.93;2.93;;;;;;;;;;5037846;28;20538;-60
2023/10/08 03:15:46;;;;;;;10.13;3.40;;;12.30;99.90;;;;;;5037110;28;20444;-60
2023/10/08 03:18:15;;;;;;;6.43;3.00;;;12.30;99.90;;;;;;5037172;28;20432;-61
2023/10/08 03:20:48;;;;;;;13.10;4.40;;;12.30;99.90;;;;;;5037644;28;20483;-61
2023/10/08 03:23:33;;;;;;;5.67;2.33;;;12.30;99.90;;;;;;5041631;28;20470;-60
2023/10/08 03:26:09;;;;;;;6.30;3.07;;;12.40;99.90;;;;;;5040662;28;20487;-58
2023/10/08 03:28:37;;;;;;;3.47;2.33;;;12.30;99.90;;;;;;5044222;28;20488;-61
2023/10/08 03:31:04;;;;;;;10.33;2.90;;;12.30;99.90;;;;;;5044609;28;20451;-61
2023/10/08 03:33:35;;;;;;;5.70;2.60;;;12.30;99.90;;;;;;5044179;28;20559;-60
2023/10/08 03:36:14;;;;;;;7.53;4.40;;;12.90;99.90;;;;;;5043893;28;20979;-58
2023/10/08 03:38:51;;;;;;;8.93;3.50;;;12.30;99.90;;;;;;5043848;28;20436;-61
2023/10/08 03:41:20;;;;;;;6.00;2.60;;;12.20;99.90;;;;;;5043775;28;20505;-61
2023/10/08 03:43:58;;;;;;;4.07;2.40;;;12.20;99.90;;;;;;5042380;28;20471;-61
2023/10/08 03:46:26;;;;;;;12.97;4.77;;;12.30;99.90;;;;;;5040561;28;20463;-60
2023/10/08 03:48:57;;;;;;;4.17;2.60;;;12.30;99.90;;;;;;5040943;28;20505;-60
2023/10/08 03:51:27;;;;;;;4.87;2.73;;;12.30;99.90;;;;;;5040703;28;20443;-56
2023/10/08 03:54:10;;;;;;;5.60;3.00;;;12.30;99.90;;;;;;5040609;28;20439;-58
2023/10/08 03:56:37;;;;;;;5.23;3.43;;;12.30;99.90;;;;;;5040986;28;20501;-60
2023/10/08 03:59:12;;;;;;;4.97;2.20;;;12.30;99.90;;;;;;5040330;28;20827;-60
2023/10/08 04:01:43;;;;;;;7.20;2.60;;;12.70;99.90;;;;;;5040445;28;20495;-60
2023/10/08 04:04:15;;;;;;;9.63;3.00;;;12.30;99.90;;;;;;5040103;28;20471;-59
2023/10/08 04:06:49;;;;;;;4.70;2.43;;;12.30;99.90;;;;;;5040225;28;20472;-61
2023/10/08 04:09:24;;;;;;;11.10;3.37;;;12.20;99.90;;;;;;5040320;28;20891;-61
2023/10/08 04:11:51;;;;;;;3.50;2.43;;;12.20;99.90;;;;;;5040389;28;20705;-60
2023/10/08 04:14:19;;;;;;;12.93;3.00;;;12.30;99.90;;;;;;5040801;28;20518;-60
2023/10/08 04:16:46;;;;;;;5.97;2.97;;;;;;;;;;5043639;28;20460;-61
2023/10/08 04:19:18;;;;;;;10.33;3.10;;;12.20;99.90;;;;;;5043351;28;20541;-60
2023/10/08 04:21:44;;;;;;;7.67;2.37;;;12.20;99.90;;;;;;5043176;28;20428;-61
2023/10/08 04:24:14;;;;;;;5.13;2.87;;;12.20;99.90;;;;;;5043366;28;20448;-61
2023/10/08 04:26:42;;;;;;;6.20;3.10;;;12.20;99.90;;;;;;5043446;28;20468;-63
2023/10/08 04:29:09;;;;;;;3.27;2.80;;;12.10;99.90;;;;;;5046497;28;20436;-61
2023/10/08 04:31:43;;;;;;;8.00;2.90;;;12.10;99.90;;;;;;5040825;28;20823;-61
2023/10/08 04:34:15;;;;;;;3.80;2.60;;;12.10;99.90;;;;;;5045314;28;20749;-61
2023/10/08 04:36:45;;;;;;;10.80;2.53;;;12.10;99.90;;;;;;5045638;28;20432;-61
2023/10/08 04:39:15;;;;;;;6.30;2.73;;;12.10;99.90;;;;;;5042611;28;20556;-61
2023/10/08 04:41:43;;;;;;;3.60;2.63;;;;;;;;;;5042480;28;20448;-61
2023/10/08 04:44:15;;;;;;;9.33;2.67;;;12.10;99.90;;;;;;5040267;28;20502;-61
2023/10/08 04:46:51;;;;;;;10.63;2.70;;;12.10;99.90;;;;;;5043852;28;20467;-61
2023/10/08 04:49:27;;;;;;;8.70;2.67;;;12.20;99.90;;;;;;5044006;28;20522;-61
2023/10/08 04:51:58;;;;;;;5.90;2.73;;;12.00;99.90;;;;;;5042189;28;20474;-60
2023/10/08 04:54:29;;;;;;;8.37;2.50;;;12.20;99.90;;;;;;5041996;28;20478;-60
2023/10/08 04:56:57;;;;;;;4.23;2.90;;;12.20;99.90;;;;;;5042331;28;20881;-60
2023/10/08 04:59:32;;;;;;;11.17;2.90;;;12.20;99.90;;;;;;5043821;28;20492;-61
2023/10/08 05:02:20;;;;;;;4.30;2.30;;;12.10;99.90;;;;;;5043222;28;20489;-60
2023/10/08 05:05:21;;;;;;;7.53;2.10;;;12.10;99.90;;;;;;5044793;28;20428;-61
2023/10/08 05:08:17;;;;;;;7.70;2.93;;;12.10;99.90;;;;;;5043522;28;20451;-62
2023/10/08 05:11:01;;;;;;;9.80;2.53;;;11.90;99.90;;;;;;5043899;28;20425;-61
2023/10/08 05:13:33;;;;;;;5.87;2.60;;;11.90;99.90;;;;;;5043467;28;20936;-59
2023/10/08 05:16:29;;;;;;;8.53;4.13;;;11.90;99.90;;;;;;5043546;28;20496;-61
2023/10/08 05:19:14;;;;;;;3.13;2.20;;;11.90;99.90;;;;;;5045302;28;20468;-60
2023/10/08 05:21:51;;;;;;;2.97;2.10;;;11.80;99.90;;;;;;5040699;28;20424;-61
2023/10/08 05:24:27;;;;;;;2.50;2.23;;;11.80;99.90;;;;;;5042805;28;20431;-60
2023/10/08 05:27:25;;;;;;;8.73;2.97;;;11.70;99.90;;;;;;5040994;28;20472;-60
2023/10/08 05:32:46;;;;;;;7.80;3.50;;;11.70;99.90;;;;;;5041350;28;20459;-61
2023/10/08 05:38:13;;;;;;;4.67;2.60;;;11.50;99.90;;;;;;5039069;28;20859;-59
2023/10/08 05:41:04;;;;;;;14.40;3.50;;;11.60;99.90;;;;;;5038743;28;20503;-60
2023/10/08 05:43:55;;;;;;;6.40;3.20;;;11.60;99.90;;;;;;5039079;28;20436;-60
2023/10/08 05:46:51;;;;;;;7.43;3.00;;;11.60;99.90;;;;;;5038909;28;20563;-63
2023/10/08 05:52:25;;;;;;;8.33;3.23;;;11.60;99.90;;;;;;5038159;28;20407;-60
2023/10/08 05:55:14;;;;;;;4.60;2.00;;;11.70;99.90;;;;;;5038021;28;20504;-62
2023/10/08 05:57:51;;;;;;;6.80;2.43;;;11.70;99.90;;;;;;5038622;28;20428;-61
2023/10/08 06:00:46;;;;;;;5.93;3.17;;;11.70;99.90;;;;;;5038545;28;20889;-60
2023/10/08 06:03:32;;;;;;;6.77;2.63;;;11.70;99.90;;;;;;5039319;28;20444;-60
2023/10/08 06:09:04;;;;;;;11.33;2.70;;;11.70;99.90;;;;;;5038511;28;20443;-59
2023/10/08 06:11:41;;;;;;;7.43;2.40;;;11.70;99.90;;;;;;5038212;28;20432;-61
2023/10/08 06:14:16;;;;;;;3.57;2.17;;;11.80;99.90;;;;;;5038112;28;20464;-59
2023/10/08 06:16:43;;;;;;;7.37;2.97;;;11.80;99.90;;;;;;5037997;28;20428;-60
2023/10/08 06:19:12;;;;;;;5.17;2.20;;;11.90;99.90;;;;;;5037928;28;20439;-59
2023/10/08 06:21:40;;;;;;;6.60;1.90;;;11.90;99.90;;;;;;5037885;28;20444;-60
2023/10/08 06:24:09;;;;;;;10.77;2.90;;;11.90;99.90;;;;;;5038005;28;20437;-59
2023/10/08 06:26:42;;;;;;;9.77;2.13;;;11.90;99.90;;;;;;5038165;28;20491;-59
2023/10/08 06:29:26;;;;;;;7.23;1.93;;;12.00;99.90;;;;;;5038394;28;20437;-60
2023/10/08 06:31:55;;;;;;;4.70;2.73;;;12.00;99.90;;;;;;5037870;28;20452;-60
2023/10/08 06:34:23;;;;;;;2.50;1.70;;;12.10;99.90;;;;;;5037690;28;20448;-61
2023/10/08 06:36:53;;;;;;;3.67;2.10;;;12.20;99.90;;;;;;5037909;28;20487;-61
2023/10/08 06:39:25;;;;;;;5.70;2.43;;;12.20;99.90;;;;;;5037498;28;20475;-60
2023/10/08 06:41:54;;;;;;;3.00;1.67;;;12.20;99.90;;;;;;5038176;28;20760;-61
2023/10/08 06:44:24;;;;;;;9.13;2.07;;;12.20;99.90;;;;;;5037985;28;20444;-61
2023/10/08 06:46:54;;;;;;;7.33;2.30;;;12.20;99.90;;;;;;5037320;28;20870;-61
2023/10/08 06:49:23;;;;;;;14.83;2.30;;;12.20;99.90;;;;;;5037780;28;20448;-61
2023/10/08 06:51:51;;;;;;;3.43;1.93;;;12.30;99.90;;;;;;5037388;28;20486;-60
2023/10/08 06:54:19;;;;;;;6.40;2.33;;;;;;;;;;5037534;28;20437;-59
2023/10/08 06:56:51;;;;;;;4.03;1.90;;;12.40;99.90;;;;;;5037171;28;20500;-59
2023/10/08 06:59:18;;;;;;;4.10;2.50;;;12.40;99.90;;;;;;5037415;28;20429;-60
2023/10/08 07:01:47;;;;;;;4.37;2.03;;;12.50;99.90;;;;;;5039370;28;20785;-60
2023/10/08 07:04:14;;;;;;;2.90;1.80;;;12.60;99.90;;;;;;5044129;28;20444;-60
2023/10/08 07:06:42;;;;;;;3.50;1.60;;;12.60;99.90;;;;;;5044364;28;20444;-61
2023/10/08 07:09:22;;;;;;;3.87;1.67;;;12.60;99.90;;;;;;5043918;28;20444;-60
2023/10/08 07:11:54;;;;;;;8.90;1.60;;;12.70;99.90;;;;;;5043699;28;20490;-61
2023/10/08 07:14:22;;;;;;;4.97;2.47;;;12.70;99.90;;;;;;5043684;28;20501;-60
2023/10/08 07:16:52;;;;;;;4.23;2.00;;;12.60;99.90;;;;;;5044058;28;20908;-60
2023/10/08 07:19:19;;;;;;;4.60;1.60;;;12.40;99.90;;;;;;5044126;28;20475;-61
2023/10/08 07:21:46;;;;;;;3.53;1.57;;;12.50;99.90;;;;;;5043563;28;20514;-60
2023/10/08 07:24:17;;;;;;;3.07;1.60;;;12.40;99.90;;;;;;5044091;28;20475;-60
2023/10/08 07:26:47;;;;;;;2.10;1.50;;;12.40;99.90;;;;;;5044054;28;20447;-51
2023/10/08 07:29:17;;;;;;;5.67;3.60;;;12.40;99.90;;;;;;5043652;28;20892;-51
2023/10/08 07:31:48;;;;;;;4.63;1.50;;;12.30;99.90;;;;;;5043485;28;20502;-50
2023/10/08 07:34:18;;;;;;;1.80;1.20;;;12.40;99.90;;;;;;5043515;28;20512;-48
2023/10/08 07:36:46;;;;;;;4.97;1.67;;;12.30;99.90;;;;;;5043934;28;20471;-49
2023/10/08 07:39:33;;;;;;;3.67;1.90;;;12.40;99.90;;;;;;5044294;28;20491;-50
2023/10/08 07:42:05;;;;;;;5.80;1.87;;;12.30;99.90;;;;;;5043854;28;20828;-48
2023/10/08 07:44:35;;;;;;;6.10;2.80;;;12.30;99.90;;;;;;5043283;28;20428;-51
2023/10/08 07:47:04;;;;;;;2.30;1.50;;;12.40;99.90;;;;;;5043696;28;20420;-49
2023/10/08 07:49:33;;;;;;;3.33;1.33;;;12.40;99.90;;;;;;5043678;28;20555;-52
2023/10/08 07:52:00;;;;;;;5.80;1.73;;;12.10;99.90;;;;;;5043545;28;20451;-53
2023/10/08 07:54:28;;;;;;;1.93;1.27;;;12.40;99.90;;;;;;5043086;28;20547;-45
2023/10/08 07:56:59;;;;;;;5.23;2.00;;;12.40;99.90;;;;;;5045630;28;20439;-50
2023/10/08 07:59:26;;;;;;;3.77;1.97;;;12.50;99.90;;;;;;5045958;28;20835;-53
2023/10/08 08:01:55;;;;;;;3.30;1.30;;;12.40;99.90;;;;;;5045352;28;21052;-50
2023/10/08 08:04:22;;;;;;;8.33;1.63;;;12.40;99.90;;;;;;5045340;28;20550;-50
2023/10/08 08:06:51;;;;;;;5.90;2.57;;;12.50;99.90;;;;;;5045425;28;20448;-50
2023/10/08 08:09:20;;;;;;;4.50;1.93;;;12.50;99.90;;;;;;5045520;28;20523;-51
2023/10/08 08:11:48;;;;;;;2.30;1.50;;;12.60;99.90;;;;;;5045931;28;20517;-50
2023/10/08 08:14:17;;;;;;;9.13;1.47;;;12.60;99.90;;;;;;5042765;28;20838;-49
2023/10/08 08:16:47;;;;;;;2.90;1.80;;;12.60;99.90;;;;;;5041930;28;20464;-54
2023/10/08 08:19:16;;;;;;;4.03;1.97;;;12.60;99.90;;;;;;5043059;28;20432;-51
2023/10/08 08:21:45;;;;;;;1.93;1.37;;;12.70;99.90;;;;;;5042096;28;20491;-47
2023/10/08 08:24:14;;;;;;;1.90;1.17;;;12.60;99.90;;;;;;5042361;28;20543;-52
2023/10/08 08:27:00;;;;;;;3.93;1.47;;;12.60;99.90;;;;;;5041502;28;20470;-53
2023/10/08 08:29:28;;;;;;;3.00;1.50;;;;;;;;;;5040013;28;20519;-54
2023/10/08 08:31:56;;;;;;;4.73;1.90;;;12.80;99.90;;;;;;5039474;28;20846;-55
2023/10/08 08:34:23;;;;;;;2.00;1.43;;;12.90;99.90;;;;;;5041473;28;20472;-51
2023/10/08 08:36:51;;;;;;;1.80;1.30;;;13.30;99.90;;;;;;5041030;28;20502;-50
2023/10/08 08:39:32;;;;;;;2.07;1.60;;;15.80;99.90;;;;;;5040717;28;20518;-51
2023/10/08 08:42:01;;;;;;;2.37;1.60;;;15.80;99.90;;;;;;5039578;28;20832;-51
2023/10/08 08:44:31;;;;;;;1.57;1.20;;;17.70;99.90;;;;;;5038780;28;20440;-52
2023/10/08 08:47:04;;;;;;;1.40;1.00;;;19.30;99.90;;;;;;5038551;28;20757;-51
2023/10/08 08:49:33;;;;;;;5.27;1.63;;;20.90;99.90;;;;;;5038453;28;20432;-51
2023/10/08 08:52:01;;;;;;;3.40;1.20;;;22.40;97.90;;;;;;5037826;28;20440;-51
2023/10/08 08:54:30;;;;;;;1.73;1.17;;;23.50;91.80;;;;;;5037765;28;20739;-52
2023/10/08 08:56:59;;;;;;;2.03;1.47;;;24.70;85.30;;;;;;5037704;28;20467;-52
2023/10/08 08:59:29;;;;;;;1.43;0.90;;;26.20;93.50;;;;;;5037544;28;20440;-53
2023/10/08 09:01:58;;;;;;;2.23;1.60;;;26.20;72.70;;;;;;5037232;28;20496;-51
2023/10/08 09:04:30;;;;;;;2.07;1.50;;;26.80;67.90;;;;;;5037383;28;20425;-52
2023/10/08 09:06:57;;;;;;;1.30;1.00;;;27.30;64.20;;;;;;5037666;28;20440;-48
2023/10/08 09:09:31;;;;;;;4.23;1.73;;;26.90;60.20;;;;;;5036298;28;20448;-48
2023/10/08 09:11:58;;;;;;;1.67;1.40;;;25.70;61.70;;;;;;5037368;28;20503;-47
2023/10/08 09:14:29;;;;;;;3.40;1.20;;;24.00;63.30;;;;;;5037213;28;20510;-51
2023/10/08 09:16:57;;;;;;;2.47;1.40;;;22.60;65.20;;;;;;5038494;28;20738;-52
2023/10/08 09:19:26;;;;;;;2.90;1.67;;;21.40;70.50;;;;;;5038108;28;20526;-52
2023/10/08 09:22:04;;;;;;;6.13;3.03;;;20.50;76.80;;;;;;5037644;28;20476;-50
2023/10/08 09:24:36;;;;;;;4.33;2.50;;;20.70;96.70;;;;;;5037733;28;20940;-47
2023/10/08 09:27:03;;;;;;;5.30;1.47;;;21.30;99.90;;;;;;5037916;28;20424;-52
2023/10/08 09:29:31;;;;;;;12.83;6.93;;;;;;;;;;5038300;28;20537;-50
2023/10/08 09:31:59;;;;;;;4.60;2.80;;;22.90;77.50;;;;;;5038311;28;20475;-48
2023/10/08 09:34:28;;;;;;;2.37;1.73;;;23.80;99.90;;;;;;5038444;28;20492;-52
2023/10/08 09:36:57;;;;;;;1.53;1.07;;;24.90;99.90;;;;;;5037496;28;20424;-49
2023/10/08 09:39:28;;;;;;;3.37;1.70;;;25.60;62.80;;;;;;5037291;28;20429;-52
2023/10/08 09:41:58;;;;;;;3.93;1.80;;;25.80;96.30;;;;;;5036964;28;20480;-51
2023/10/08 09:44:25;;;;;;;1.80;1.20;;;;;;;;;;5037205;28;20519;-51
2023/10/08 09:46:54;;;;;;;3.20;1.73;;;26.40;96.00;;;;;;5036836;28;20567;-51
2023/10/08 09:49:31;;;;;;;1.70;1.53;;;26.50;92.20;;;;;;5037163;28;20654;-52
2023/10/08 09:52:01;;;;;;;2.93;1.50;;;26.60;92.20;;;;;;5036475;28;20478;-49
2023/10/08 09:54:32;;;;;;;1.37;1.20;;;26.40;94.70;;;;;;5037192;28;20528;-50
2023/10/08 09:57:06;;;;;;;3.53;1.40;;;26.50;90.40;;;;;;5037262;28;20546;-52
2023/10/08 09:59:34;;;;;;;2.40;0.90;;;25.50;85.40;;;;;;5036531;28;20952;-51
2023/10/08 10:02:02;;;;;;;2.30;1.40;;;;;;;;;;5036488;28;21036;-47
2023/10/08 10:04:34;;;;;;;3.10;1.10;;;23.80;62.90;;;;;;5037625;28;20448;-49
2023/10/08 10:07:12;;;;;;;2.30;1.20;;;24.40;68.60;;;;;;5043498;28;20483;-48
2023/10/08 10:09:40;;;;;;;4.20;1.37;;;;;;;;;;5043427;28;20448;-49
2023/10/08 10:12:09;;;;;;;2.80;1.37;;;24.70;82.20;;;;;;5051391;28;20427;-50
2023/10/08 10:14:43;;;;;;;1.97;1.10;;;24.90;52.50;;;;;;5056155;28;20425;-50
2023/10/08 10:17:14;;;;;;;1.93;1.50;;;24.90;51.20;;;;;;5051283;28;20460;-50
2023/10/08 10:19:45;;;;;;;1.40;1.13;;;24.00;51.70;;;;;;5042311;28;20424;-53
2023/10/08 10:22:15;;;;;;;1.83;1.23;;;23.80;52.50;;;;;;5042403;28;20474;-49
2023/10/08 10:24:42;;;;;;;1.47;1.17;;;24.00;51.50;;;;;;5042065;28;20449;-54
2023/10/08 10:27:17;;;;;;;1.57;1.10;;;24.40;50.90;;;;;;5041690;28;20440;-51
2023/10/08 10:29:47;;;;;;;2.53;1.47;;;24.60;49.50;;;;;;5042158;28;20547;-53
2023/10/08 10:32:15;;;;;;;2.03;1.47;;;24.70;50.30;;;;;;5041792;28;20456;-53
2023/10/08 10:34:47;;;;;;;1.57;1.30;;;24.80;49.90;;;;;;5041534;28;20507;-54
2023/10/08 10:37:20;;;;;;;4.50;1.17;;;24.80;48.80;;;;;;5040739;28;20424;-51
2023/10/08 10:39:59;;;;;;;3.83;1.20;;;24.60;50.00;;;;;;5040761;28;20413;-48
2023/10/08 10:42:28;;;;;;;2.13;1.20;;;24.30;48.30;;;;;;5041519;28;20970;-54
2023/10/08 10:44:58;;;;;;;2.00;1.37;;;24.00;51.30;;;;;;5041709;28;20452;-51
2023/10/08 10:47:27;;;;;;;1.43;1.20;;;23.70;51.40;;;;;;5042368;28;20506;-54
2023/10/08 10:50:10;;;;;;;1.97;1.73;;;23.50;48.90;;;;;;5041765;28;20547;-54
2023/10/08 10:52:44;;;;;;;2.93;1.83;;;23.30;53.30;;;;;;5041890;28;20424;-53
2023/10/08 10:55:21;;;;;;;2.60;1.33;;;22.70;51.40;;;;;;5038468;28;20503;-54
2023/10/08 10:57:55;;;;;;;2.10;1.30;;;21.90;51.40;;;;;;5043117;28;20522;-52
2023/10/08 11:03:16;;;;;;;4.40;2.20;;;20.60;53.80;;;;;;5038241;28;20542;-51
2023/10/08 11:05:49;;;;;;;1.37;0.90;;;20.20;54.60;;;;;;5038212;28;20419;-48
2023/10/08 11:08:19;;;;;;;1.17;0.87;;;19.90;55.00;;;;;;5038916;28;20550;-53
2023/10/08 11:10:50;;;;;;;3.33;1.03;;;19.70;55.20;;;;;;5039016;28;20510;-52
2023/10/08 11:13:37;;;;;;;1.53;1.03;;;19.40;53.30;;;;;;5038503;28;20463;-48
2023/10/08 11:16:05;;;;;;;1.50;1.07;;;19.20;53.80;;;;;;5038305;28;20428;-48
2023/10/08 11:18:32;;;;;;;1.40;1.03;;;19.00;56.50;;;;;;5039378;28;20559;-48
2023/10/08 11:21:15;;;;;;;3.70;1.27;;;18.80;55.80;;;;;;5039061;28;20500;-50
2023/10/08 11:23:46;;;;;;;1.97;1.20;;;18.60;56.40;;;;;;5038650;28;20502;-54
2023/10/08 11:26:15;;;;;;;2.33;1.20;;;18.50;56.80;;;;;;5038184;28;20783;-49
2023/10/08 11:28:47;;;;;;;4.03;1.30;;;18.40;57.00;;;;;;5038670;28;20494;-51
2023/10/08 11:31:19;;;;;;;1.97;1.53;;;18.20;58.70;;;;;;5038913;28;20537;-52
2023/10/08 11:33:53;;;;;;;2.20;1.50;;;18.10;56.80;;;;;;5038582;28;20440;-49
2023/10/08 11:36:27;;;;;;;2.00;1.03;;;18.00;58.10;;;;;;5038471;28;20498;-49
2023/10/08 11:39:00;;;;;;;2.17;1.37;;;17.90;55.50;;;;;;5038687;28;20433;-51
2023/10/08 11:41:28;;;;;;;2.17;1.60;;;17.80;55.90;;;;;;5038476;28;20602;-51
2023/10/08 11:43:58;;;;;;;1.70;1.40;;;17.70;55.60;;;;;;5038691;28;20543;-50
2023/10/08 11:46:27;;;;;;;2.67;1.50;;;17.70;57.30;;;;;;5038117;28;20498;-51
2023/10/08 11:48:57;;;;;;;2.20;1.30;;;17.70;56.60;;;;;;5040153;28;20928;-51
2023/10/08 11:51:25;;;;;;;2.60;1.80;;;17.70;56.70;;;;;;5042160;28;20780;-51
2023/10/08 11:53:53;;;;;;;3.00;1.50;;;17.70;56.70;;;;;;5042301;28;20424;-52
2023/10/08 11:56:23;;;;;;;2.37;1.10;;;17.70;58.60;;;;;;5042441;28;20479;-52
2023/10/08 11:58:56;;;;;;;1.50;1.30;;;17.70;58.60;;;;;;5042092;28;20909;-53
2023/10/08 12:01:24;;;;;;;2.67;1.40;;;17.60;59.00;;;;;;5042051;28;20975;-51
2023/10/08 12:03:51;;;;;;;2.70;1.57;;;17.50;60.40;;;;;;5042103;28;20468;-51
2023/10/08 12:06:19;;;;;;;1.10;0.90;;;17.50;60.70;;;;;;5042098;28;20439;-53
2023/10/08 12:08:46;;;;;;;4.80;1.10;;;17.50;60.00;;;;;;5042423;28;20444;-51
2023/10/08 12:11:14;;;;;;;3.00;1.23;;;17.70;60.00;;;;;;5042923;28;20874;-53
2023/10/08 12:13:45;;;;;;;1.50;1.03;;;17.70;61.00;;;;;;5041976;28;20540;-53
2023/10/08 12:16:18;;;;;;;2.20;1.30;;;17.80;61.50;;;;;;5042344;28;20458;-55
2023/10/08 12:18:48;;;;;;;2.03;1.20;;;18.00;60.50;;;;;;5041952;28;20510;-50
2023/10/08 12:21:17;;;;;;;1.60;1.30;;;18.10;62.80;;;;;;5042483;28;20468;-49
2023/10/08 12:23:46;;;;;;;3.47;1.30;;;18.10;61.80;;;;;;5041754;28;20476;-50
2023/10/08 12:26:15;;;;;;;2.53;1.30;;;18.10;60.50;;;;;;5041572;28;20459;-50
2023/10/08 12:28:44;;;;;;;1.60;1.20;;;18.00;61.50;;;;;;5041901;28;20475;-54
2023/10/08 12:31:15;;;;;;;1.70;1.50;;;17.90;62.30;;;;;;5041518;28;20462;-52
2023/10/08 12:33:43;;;;;;;2.37;1.40;;;17.80;61.70;;;;;;5041308;28;20549;-53
2023/10/08 12:36:12;;;;;;;4.07;1.60;;;17.80;62.50;;;;;;5042736;28;20488;-49
2023/10/08 12:38:41;;;;;;;3.20;1.83;;;17.80;64.10;;;;;;5041499;28;20510;-55
2023/10/08 12:41:12;;;;;;;4.20;1.80;;;17.90;62.40;;;;;;5041291;28;20459;-52
2023/10/08 12:43:42;;;;;;;4.03;1.83;;;18.00;63.70;;;;;;5041001;28;20433;-53
2023/10/08 12:46:18;;;;;;;2.90;1.27;;;18.10;63.60;;;;;;5041332;28;20538;-53
2023/10/08 12:48:47;;;;;;;1.90;1.30;;;18.20;65.00;;;;;;5041282;28;20428;-52
2023/10/08 12:51:16;;;;;;;2.30;1.97;;;18.30;63.30;;;;;;5040948;28;20480;-52
2023/10/08 12:53:50;;;;;;;2.57;1.20;;;18.30;62.30;;;;;;5041337;28;20440;-54
2023/10/08 12:56:21;;;;;;;1.87;1.27;;;18.30;61.40;;;;;;5041057;28;20472;-54
2023/10/08 12:58:49;;;;;;;2.90;1.50;;;18.40;62.20;;;;;;5040892;28;20429;-53
2023/10/08 13:01:17;;;;;;;4.97;1.57;;;18.20;59.60;;;;;;5040987;28;20468;-52
2023/10/08 13:03:48;;;;;;;3.20;1.83;;;18.10;58.50;;;;;;5041187;28;20510;-52
2023/10/08 13:06:22;;;;;;;1.40;1.20;;;18.00;57.00;;;;;;5040702;28;20551;-50
2023/10/08 13:08:52;;;;;;;2.80;1.03;;;18.10;58.00;;;;;;5041138;28;20420;-50
2023/10/08 13:11:22;;;;;;;2.07;1.30;;;18.20;58.70;;;;;;5040955;28;20510;-51
2023/10/08 13:13:50;;;;;;;1.63;1.10;;;18.20;59.00;;;;;;5040806;28;20443;-49
2023/10/08 13:16:17;;;;;;;2.30;1.10;;;18.10;56.70;;;;;;5041036;28;20498;-50
2023/10/08 13:18:44;;;;;;;6.97;1.43;;;17.90;57.90;;;;;;5041182;28;20479;-52
2023/10/08 13:21:10;;;;;;;2.73;1.20;;;17.80;58.80;;;;;;5038457;28;20468;-53
2023/10/08 13:23:39;;;;;;;1.67;0.97;;;17.90;61.00;;;;;;5038201;28;20516;-61
2023/10/08 13:26:07;;;;;;;1.60;0.97;;;18.00;58.20;;;;;;5038370;28;20917;-61
2023/10/08 13:28:34;;;;;;;1.40;0.93;;;18.00;59.00;;;;;;5038715;28;20447;-62